createdAt,value
2023-12-11T00:01:33.661Z,38.97
2023-12-11T00:04:37.106Z,38.85
2023-12-11T00:07:39.787Z,42.65
2023-12-11T00:10:43.018Z,39.63
2023-12-11T00:13:45.695Z,46.40
2023-12-11T00:16:48.994Z,46.25
2023-12-11T00:19:51.805Z,53.67
2023-12-11T00:25:58.042Z,54.10
2023-12-11T00:29:01.223Z,55.55
2023-12-11T00:32:04.769Z,55.03
2023-12-11T00:35:08.183Z,58.22
2023-12-11T00:38:10.828Z,50.88
2023-12-11T00:41:14.122Z,53.70
2023-12-11T00:44:16.908Z,42.20
2023-12-11T00:47:20.140Z,42.95
2023-12-11T00:50:22.802Z,40.72
2023-12-11T00:53:26.046Z,44.75
2023-12-11T00:56:29.447Z,43.58
2023-12-11T00:59:32.695Z,42.28
2023-12-11T01:02:35.370Z,46.60
2023-12-11T01:05:38.513Z,47.80
2023-12-11T01:08:41.433Z,40.37
2023-12-11T01:11:44.744Z,44.42
2023-12-11T01:14:47.384Z,41.97
2023-12-11T01:17:50.930Z,47.60
2023-12-11T01:20:53.809Z,44.75
2023-12-11T01:23:58.183Z,42.22
2023-12-11T01:27:00.916Z,47.42
2023-12-11T01:30:04.466Z,52.45
2023-12-11T01:33:07.144Z,48.63
2023-12-11T01:36:10.532Z,50.05
2023-12-11T01:39:13.133Z,45.03
2023-12-11T01:42:16.609Z,49.78
2023-12-11T01:45:19.289Z,54.75
2023-12-11T01:48:23.376Z,47.17
2023-12-11T01:51:26.464Z,47.70
2023-12-11T01:54:30.530Z,50.95
2023-12-11T02:00:36.727Z,47.67
2023-12-11T02:03:40.145Z,46.10
2023-12-11T02:06:43.432Z,43.40
2023-12-11T02:09:46.057Z,41.67
2023-12-11T02:12:49.520Z,43.22
2023-12-11T02:15:52.489Z,41.13
2023-12-11T02:21:58.620Z,46.58
2023-12-11T02:25:05.331Z,37.78
2023-12-11T02:28:08.257Z,37.05
2023-12-11T02:31:12.180Z,35.65
2023-12-11T02:34:14.901Z,43.63
2023-12-11T02:37:18.217Z,36.95
2023-12-11T02:40:20.851Z,37.45
2023-12-11T02:43:24.138Z,39.45
2023-12-11T02:46:26.921Z,38.25
2023-12-11T02:49:30.446Z,44.45
2023-12-11T02:52:33.132Z,44.13
2023-12-11T02:55:36.396Z,39.78
2023-12-11T02:58:39.153Z,37.92
2023-12-11T03:01:42.513Z,36.65
2023-12-11T03:04:45.351Z,36.75
2023-12-11T03:07:48.919Z,35.47
2023-12-11T03:10:51.560Z,33.47
2023-12-11T03:13:54.701Z,34.95
2023-12-11T03:16:57.241Z,32.63
2023-12-11T03:20:00.896Z,33.28
2023-12-11T03:23:03.601Z,32.60
2023-12-11T03:26:06.823Z,34.67
2023-12-11T03:29:09.478Z,39.70
2023-12-11T03:32:12.947Z,32.25
2023-12-11T03:35:15.658Z,31.90
2023-12-11T03:38:18.859Z,48.97
2023-12-11T03:41:21.428Z,37.37
2023-12-11T03:44:25.296Z,39.92
2023-12-11T03:47:28.144Z,33.53
2023-12-11T03:50:31.549Z,36.10
2023-12-11T03:53:34.157Z,33.80
2023-12-11T03:56:37.612Z,37.60
2023-12-11T03:59:40.208Z,37.83
2023-12-11T04:02:43.900Z,38.15
2023-12-11T04:08:50.512Z,34.92
2023-12-11T04:11:53.479Z,41.67
2023-12-11T04:14:56.310Z,35.58
2023-12-11T04:17:59.184Z,41.22
2023-12-11T04:21:02.391Z,36.78
2023-12-11T04:24:05.891Z,37.33
2023-12-11T04:30:11.929Z,38.40
2023-12-11T04:33:14.886Z,35.20
2023-12-11T04:36:17.889Z,37.25
2023-12-11T04:39:20.757Z,41.03
2023-12-11T04:42:23.801Z,40.88
2023-12-11T04:45:26.747Z,38.70
2023-12-11T04:48:29.737Z,40.80
2023-12-11T04:51:32.688Z,37.83
2023-12-11T04:54:35.940Z,38.22
2023-12-11T04:57:39.009Z,38.55
2023-12-11T05:00:42.087Z,40.65
2023-12-11T05:03:45.544Z,36.13
2023-12-11T05:09:51.241Z,36.67
2023-12-11T05:12:54.205Z,37.25
2023-12-11T05:15:57.139Z,42.22
2023-12-11T05:19:00.165Z,40.05
2023-12-11T05:22:04.006Z,39.75
2023-12-11T05:25:07.689Z,40.92
2023-12-11T05:28:10.627Z,40.65
2023-12-11T05:31:13.655Z,40.70
2023-12-11T05:34:16.655Z,39.95
2023-12-11T05:37:19.696Z,39.10
2023-12-11T05:40:24.061Z,36.00
2023-12-11T05:43:27.281Z,35.65
2023-12-11T05:46:30.256Z,37.90
2023-12-11T05:49:33.211Z,40.50
2023-12-11T05:52:36.310Z,35.83
2023-12-11T05:55:39.202Z,35.70
2023-12-11T05:58:42.164Z,36.00
2023-12-11T06:01:45.336Z,34.13
2023-12-11T06:04:48.538Z,38.50
2023-12-11T06:07:51.136Z,35.20
2023-12-11T06:10:54.836Z,33.38
2023-12-11T06:13:57.436Z,33.45
2023-12-11T06:17:01.141Z,34.25
2023-12-11T06:20:05.514Z,34.33
2023-12-11T06:23:08.705Z,37.03
2023-12-11T06:26:11.841Z,35.22
2023-12-11T06:32:17.424Z,39.80
2023-12-11T06:35:20.604Z,39.58
2023-12-11T06:38:23.203Z,34.53
2023-12-11T06:41:26.508Z,33.47
2023-12-11T06:44:29.173Z,34.65
2023-12-11T06:50:36.653Z,32.10
2023-12-11T06:53:39.827Z,32.03
2023-12-11T06:56:42.822Z,33.07
2023-12-11T06:59:46.116Z,32.70
2023-12-11T07:02:48.783Z,31.07
2023-12-11T07:05:52.048Z,29.83
2023-12-11T07:08:54.735Z,31.70
2023-12-11T07:11:58.006Z,26.58
2023-12-11T07:15:01.633Z,29.55
2023-12-11T07:18:04.978Z,30.25
2023-12-11T07:21:10.980Z,27.60
2023-12-11T07:24:14.372Z,25.08
2023-12-11T07:27:17.128Z,25.40
2023-12-11T07:30:20.733Z,25.98
2023-12-11T07:33:23.550Z,29.33
2023-12-11T07:39:31.458Z,26.02
2023-12-11T07:42:34.706Z,27.02
2023-12-11T07:45:37.325Z,29.48
2023-12-11T07:48:41.353Z,26.08
2023-12-11T07:51:44.573Z,30.20
2023-12-11T07:57:50.359Z,29.12
2023-12-11T08:00:53.917Z,27.92
2023-12-11T08:03:56.994Z,27.55
2023-12-11T08:07:00.017Z,32.75
2023-12-11T08:10:05.735Z,31.55
2023-12-11T08:13:08.823Z,28.90
2023-12-11T08:16:13.725Z,30.60
2023-12-11T08:19:16.674Z,32.60
2023-12-11T08:22:19.661Z,29.10
2023-12-11T08:25:23.201Z,30.70
2023-12-11T08:28:26.225Z,30.20
2023-12-11T08:31:29.273Z,28.50
2023-12-11T08:34:32.512Z,29.55
2023-12-11T08:37:36.240Z,28.65
2023-12-11T08:40:39.330Z,28.48
2023-12-11T08:43:42.308Z,27.50
2023-12-11T08:46:45.689Z,25.52
2023-12-11T08:49:48.705Z,28.27
2023-12-11T08:52:51.676Z,24.17
2023-12-11T08:55:55.656Z,23.05
2023-12-11T08:58:58.684Z,26.15
2023-12-11T09:02:01.630Z,24.25
2023-12-11T09:05:05.090Z,29.25
2023-12-11T09:11:10.954Z,28.08
2023-12-11T09:14:13.849Z,25.95
2023-12-11T09:17:16.748Z,30.35
2023-12-11T09:20:19.737Z,29.35
2023-12-11T09:23:22.797Z,27.00
2023-12-11T09:26:26.015Z,28.83
2023-12-11T09:29:28.893Z,30.83
2023-12-11T09:32:31.847Z,29.00
2023-12-11T09:35:34.898Z,29.35
2023-12-11T09:38:38.526Z,32.13
2023-12-11T09:41:44.098Z,28.55
2023-12-11T09:44:48.808Z,28.30
2023-12-11T09:48:04.787Z,32.58
2023-12-11T09:51:16.498Z,29.90
2023-12-11T09:54:19.469Z,29.80
2023-12-11T09:57:22.911Z,31.33
2023-12-11T10:00:26.203Z,29.52
2023-12-11T10:03:29.989Z,33.17
2023-12-11T10:09:35.780Z,37.45
2023-12-11T10:21:18.087Z,35.35
2023-12-11T10:24:21.261Z,35.33
2023-12-11T10:27:28.339Z,38.22
2023-12-11T10:30:31.718Z,36.17
2023-12-11T10:33:35.027Z,36.60
2023-12-11T10:36:49.423Z,32.00
2023-12-11T10:43:01.701Z,34.03
2023-12-11T10:46:04.622Z,36.10
2023-12-11T10:49:08.496Z,35.25
2023-12-11T10:52:12.136Z,35.22
2023-12-11T10:55:16.064Z,33.92
2023-12-11T10:58:19.031Z,33.70
2023-12-11T11:01:22.678Z,33.47
2023-12-11T11:04:27.393Z,33.40
2023-12-11T11:07:36.470Z,35.33
2023-12-11T11:10:48.844Z,33.05
2023-12-11T11:14:25.213Z,35.30
2023-12-11T11:18:03.814Z,36.67
2023-12-11T11:21:14.173Z,32.35
2023-12-11T11:24:30.146Z,32.42
2023-12-11T11:27:44.116Z,33.30
2023-12-11T11:30:52.843Z,34.13
2023-12-11T11:33:58.467Z,33.67
2023-12-11T11:37:01.843Z,36.10
2023-12-11T11:43:10.362Z,27.25
2023-12-11T11:46:13.589Z,27.70
2023-12-11T11:49:33.666Z,27.87
2023-12-11T11:52:40.134Z,28.27
2023-12-11T11:55:43.269Z,23.27
2023-12-11T11:58:47.027Z,24.65
2023-12-11T12:01:54.312Z,25.02
2023-12-11T12:05:09.841Z,29.20
2023-12-11T12:08:13.871Z,23.95
2023-12-11T12:11:17.103Z,26.90
2023-12-11T12:14:22.607Z,24.90
2023-12-11T12:17:26.082Z,22.17
2023-12-11T12:20:28.963Z,25.33
2023-12-11T12:23:33.050Z,24.05
2023-12-11T12:26:37.078Z,20.80
2023-12-11T12:29:41.816Z,24.02
2023-12-11T12:32:45.049Z,23.73
2023-12-11T12:35:50.071Z,23.58
2023-12-11T12:38:52.858Z,19.83
2023-12-11T12:41:57.664Z,19.92
2023-12-11T12:45:00.816Z,20.90
2023-12-11T12:48:05.905Z,21.75
2023-12-11T12:51:10.803Z,23.17
2023-12-11T12:54:15.887Z,24.37
2023-12-11T12:57:18.693Z,22.58
2023-12-11T13:00:21.838Z,21.83
2023-12-11T13:03:25.493Z,22.80
2023-12-11T13:06:28.926Z,23.30
2023-12-11T13:09:33.258Z,26.27
2023-12-11T13:12:36.538Z,25.50
2023-12-11T13:15:40.544Z,27.33
2023-12-11T13:18:43.973Z,24.77
2023-12-11T13:21:46.885Z,28.40
2023-12-11T13:24:50.039Z,27.65
2023-12-11T13:27:52.667Z,26.60
2023-12-11T13:33:58.454Z,30.20
2023-12-11T13:40:08.341Z,28.23
2023-12-11T13:43:12.867Z,27.35
2023-12-11T13:46:15.893Z,27.85
2023-12-11T13:49:19.232Z,29.42
2023-12-11T13:52:22.332Z,30.23
2023-12-11T13:55:25.604Z,29.52
2023-12-11T13:58:28.807Z,30.73
2023-12-11T14:01:32.054Z,36.03
2023-12-11T14:04:34.983Z,37.10
2023-12-11T14:07:38.010Z,46.70
2023-12-11T14:10:41.028Z,45.22
2023-12-11T14:13:43.946Z,46.00
2023-12-11T14:16:46.838Z,51.53
2023-12-11T14:19:50.168Z,50.00
2023-12-11T14:22:53.280Z,50.50
2023-12-11T14:25:58.210Z,49.22
2023-12-11T14:29:01.125Z,46.00
2023-12-11T14:32:04.186Z,47.38
2023-12-11T14:35:07.605Z,42.97
2023-12-11T14:38:10.569Z,44.15
2023-12-11T14:41:14.183Z,47.42
2023-12-11T14:44:19.224Z,49.15
2023-12-11T14:47:23.245Z,45.20
2023-12-11T14:50:26.128Z,46.90
2023-12-11T14:53:29.698Z,50.03
2023-12-11T14:56:32.648Z,51.05
2023-12-11T14:59:36.207Z,50.75
2023-12-11T15:02:39.427Z,54.05
2023-12-11T15:05:42.437Z,51.58
2023-12-11T15:08:45.519Z,45.53
2023-12-11T15:11:48.498Z,51.88
2023-12-11T15:14:51.609Z,46.08
2023-12-11T15:17:54.603Z,53.38
2023-12-11T15:20:57.639Z,50.97
2023-12-11T15:24:00.589Z,48.80
2023-12-11T15:27:05.090Z,48.13
2023-12-11T15:30:09.385Z,49.83
2023-12-11T15:33:12.462Z,50.97
2023-12-11T15:36:19.655Z,49.22
2023-12-11T15:39:24.898Z,47.60
2023-12-11T15:42:27.838Z,49.38
2023-12-11T15:45:30.713Z,48.55
2023-12-11T15:48:33.922Z,55.63
2023-12-11T15:51:36.875Z,49.22
2023-12-11T15:54:44.150Z,47.50
2023-12-11T15:57:47.073Z,52.17
2023-12-11T16:00:50.109Z,44.83
2023-12-11T16:03:53.578Z,45.42
2023-12-11T16:06:56.353Z,45.63
2023-12-11T16:09:59.525Z,52.88
2023-12-11T16:13:02.381Z,54.57
2023-12-11T16:16:10.148Z,47.47
2023-12-11T16:19:13.803Z,47.10
2023-12-11T16:22:17.738Z,44.60
2023-12-11T16:25:20.323Z,48.65
2023-12-11T16:28:23.623Z,43.45
2023-12-11T16:31:26.384Z,46.85
2023-12-11T16:34:32.702Z,47.03
2023-12-11T16:37:35.520Z,48.67
2023-12-11T16:40:40.945Z,48.25
2023-12-11T16:43:48.711Z,50.08
2023-12-11T16:46:51.863Z,51.03
2023-12-11T16:50:02.070Z,53.07
2023-12-11T16:53:09.974Z,51.63
2023-12-11T16:56:13.887Z,52.83
2023-12-11T16:59:17.636Z,50.90
2023-12-11T17:02:20.299Z,48.22
2023-12-11T17:05:23.701Z,54.05
2023-12-11T17:08:26.874Z,51.75
2023-12-11T17:11:34.555Z,53.65
2023-12-11T17:14:37.059Z,47.62
2023-12-11T17:17:58.840Z,48.35
2023-12-11T17:21:03.677Z,48.08
2023-12-11T17:24:07.821Z,47.97
2023-12-11T17:27:10.582Z,75.10
2023-12-11T17:33:16.606Z,52.78
2023-12-11T17:36:20.029Z,54.42
2023-12-11T17:39:24.172Z,47.10
2023-12-11T17:42:28.109Z,55.90
2023-12-11T17:48:34.003Z,53.63
2023-12-11T17:51:36.794Z,54.72
2023-12-11T17:54:40.025Z,55.75
2023-12-11T17:57:42.743Z,60.20
2023-12-11T18:03:49.548Z,53.97
2023-12-11T18:06:52.771Z,58.67
2023-12-11T18:09:55.692Z,60.55
2023-12-11T18:12:58.584Z,58.28
2023-12-11T18:16:01.621Z,58.00
2023-12-11T18:19:04.649Z,58.25
2023-12-11T18:22:08.079Z,59.53
2023-12-11T18:28:16.510Z,58.45
2023-12-11T18:31:19.629Z,57.97
2023-12-11T18:34:23.059Z,59.53
2023-12-11T18:37:26.772Z,57.97
2023-12-11T18:40:29.915Z,64.93
2023-12-11T18:43:33.025Z,58.70
2023-12-11T18:46:36.200Z,62.35
2023-12-11T18:49:46.064Z,61.95
2023-12-11T18:52:49.731Z,59.53
2023-12-11T18:59:04.971Z,85.57
2023-12-11T19:02:09.191Z,67.78
2023-12-11T19:05:12.437Z,64.47
2023-12-11T19:08:15.479Z,57.50
2023-12-11T19:11:20.470Z,57.22
2023-12-11T19:14:24.045Z,58.83
2023-12-11T19:17:47.168Z,60.97
2023-12-11T19:20:50.076Z,58.10
2023-12-11T19:23:53.015Z,58.42
2023-12-11T19:26:55.959Z,62.78
2023-12-11T19:29:58.893Z,61.85
2023-12-11T19:33:03.174Z,61.88
2023-12-11T19:36:07.453Z,55.67
2023-12-11T19:39:11.069Z,60.20
2023-12-11T19:42:14.164Z,60.90
2023-12-11T19:45:17.679Z,58.70
2023-12-11T19:48:20.851Z,61.67
2023-12-11T19:51:48.126Z,59.40
2023-12-11T19:55:10.287Z,71.12
2023-12-11T19:58:13.169Z,61.05
2023-12-11T20:01:26.517Z,56.40
2023-12-11T20:07:32.802Z,83.32
2023-12-11T20:10:36.216Z,60.83
2023-12-11T20:13:40.174Z,54.40
2023-12-11T20:16:43.848Z,62.17
2023-12-11T20:19:46.774Z,60.78
2023-12-11T20:22:52.563Z,56.97
2023-12-11T20:26:01.483Z,57.95
2023-12-11T20:29:04.974Z,59.25
2023-12-11T20:32:07.595Z,57.95
2023-12-11T20:35:10.842Z,60.65
2023-12-11T20:38:13.530Z,57.15
2023-12-11T20:41:25.052Z,60.55
2023-12-11T20:44:27.738Z,59.47
2023-12-11T20:47:31.216Z,60.28
2023-12-11T20:50:34.105Z,61.72
2023-12-11T20:53:39.048Z,61.78
2023-12-11T20:56:41.745Z,57.17
2023-12-11T20:59:45.162Z,57.88
2023-12-11T21:02:48.131Z,58.33
2023-12-11T21:08:56.097Z,57.38
2023-12-11T21:11:59.354Z,51.42
2023-12-11T21:15:03.942Z,55.03
2023-12-11T21:18:07.657Z,54.55
2023-12-11T21:21:16.246Z,49.50
2023-12-11T21:24:19.541Z,54.03
2023-12-11T21:27:22.267Z,58.50
2023-12-11T21:33:29.382Z,51.70
2023-12-11T21:36:32.944Z,53.25
2023-12-11T21:39:35.592Z,47.75
2023-12-11T21:42:38.889Z,50.55
2023-12-11T21:45:41.559Z,45.05
2023-12-11T21:48:48.163Z,49.53
2023-12-11T21:51:51.498Z,52.10
2023-12-11T21:54:54.790Z,51.08
2023-12-11T21:57:57.374Z,49.75
2023-12-11T22:01:00.670Z,49.25
2023-12-11T22:04:03.974Z,56.05
2023-12-11T22:07:07.005Z,55.20
2023-12-11T22:10:10.056Z,56.50
2023-12-11T22:13:12.984Z,58.03
2023-12-11T22:16:16.495Z,51.37
2023-12-11T22:19:19.749Z,49.58
2023-12-11T22:22:22.724Z,55.78
2023-12-11T22:25:25.571Z,54.17
2023-12-11T22:28:28.636Z,53.72
2023-12-11T22:31:31.772Z,54.33
2023-12-11T22:34:35.232Z,51.58
2023-12-11T22:40:42.725Z,54.53
2023-12-11T22:43:45.555Z,56.20
2023-12-11T22:46:48.520Z,58.65
2023-12-11T22:49:51.400Z,54.20
2023-12-11T22:52:54.475Z,57.20
2023-12-11T22:55:57.413Z,55.55
2023-12-11T22:59:00.328Z,58.17
2023-12-11T23:02:04.458Z,53.13
2023-12-11T23:05:07.962Z,55.30
2023-12-11T23:08:10.885Z,56.72
2023-12-11T23:11:13.854Z,52.20
2023-12-11T23:14:16.754Z,52.05
2023-12-11T23:17:19.589Z,54.97
2023-12-11T23:20:22.441Z,52.15
2023-12-11T23:23:25.497Z,55.45
2023-12-11T23:26:28.348Z,49.15
2023-12-11T23:29:31.199Z,49.67
2023-12-11T23:32:34.028Z,48.63
2023-12-11T23:35:37.042Z,56.25
2023-12-11T23:38:40.403Z,51.50
2023-12-11T23:41:44.756Z,50.50
2023-12-11T23:44:47.685Z,52.05
2023-12-11T23:47:50.620Z,54.40
2023-12-11T23:50:53.494Z,57.00
2023-12-11T23:53:56.620Z,54.35
2023-12-11T23:56:59.448Z,56.13
